sensor_id;sensor_type;location;lat;lon;timestamp;temperature;humidity
29501;DHT22;16450;50.288;10.966;2023-04-24T00:00:37;11.40;97.20
29501;DHT22;16450;50.288;10.966;2023-04-24T00:03:42;11.30;97.30
29501;DHT22;16450;50.288;10.966;2023-04-24T00:06:44;11.20;97.30
29501;DHT22;16450;50.288;10.966;2023-04-24T00:09:50;11.20;97.40
29501;DHT22;16450;50.288;10.966;2023-04-24T00:12:53;11.20;97.80
29501;DHT22;16450;50.288;10.966;2023-04-24T00:15:55;11.20;97.50
29501;DHT22;16450;50.288;10.966;2023-04-24T00:18:57;11.10;97.60
29501;DHT22;16450;50.288;10.966;2023-04-24T00:21:59;11.10;97.80
29501;DHT22;16450;50.288;10.966;2023-04-24T00:25:01;11.10;97.90
29501;DHT22;16450;50.288;10.966;2023-04-24T00:28:03;11.00;98.00
29501;DHT22;16450;50.288;10.966;2023-04-24T00:31:05;11.00;98.20
29501;DHT22;16450;50.288;10.966;2023-04-24T00:34:07;11.00;98.30
29501;DHT22;16450;50.288;10.966;2023-04-24T00:37:09;11.00;98.40
29501;DHT22;16450;50.288;10.966;2023-04-24T00:40:11;11.00;98.40
29501;DHT22;16450;50.288;10.966;2023-04-24T00:43:13;11.00;98.50
29501;DHT22;16450;50.288;10.966;2023-04-24T00:46:16;11.00;98.60
29501;DHT22;16450;50.288;10.966;2023-04-24T00:49:18;11.00;98.60
29501;DHT22;16450;50.288;10.966;2023-04-24T00:52:20;11.00;98.60
29501;DHT22;16450;50.288;10.966;2023-04-24T00:55:26;11.00;98.60
29501;DHT22;16450;50.288;10.966;2023-04-24T00:58:28;10.90;98.60
29501;DHT22;16450;50.288;10.966;2023-04-24T01:01:30;10.90;98.60
29501;DHT22;16450;50.288;10.966;2023-04-24T01:04:32;10.90;98.60
29501;DHT22;16450;50.288;10.966;2023-04-24T01:07:35;10.80;98.70
29501;DHT22;16450;50.288;10.966;2023-04-24T01:10:38;10.80;98.80
29501;DHT22;16450;50.288;10.966;2023-04-24T01:13:42;10.80;98.90
29501;DHT22;16450;50.288;10.966;2023-04-24T01:16:44;10.80;99.10
29501;DHT22;16450;50.288;10.966;2023-04-24T01:19:46;10.70;99.10
29501;DHT22;16450;50.288;10.966;2023-04-24T01:22:48;10.70;99.20
29501;DHT22;16450;50.288;10.966;2023-04-24T01:25:50;10.70;99.30
29501;DHT22;16450;50.288;10.966;2023-04-24T01:28:53;10.70;99.30
29501;DHT22;16450;50.288;10.966;2023-04-24T01:31:55;10.70;99.70
29501;DHT22;16450;50.288;10.966;2023-04-24T01:34:57;10.70;99.40
29501;DHT22;16450;50.288;10.966;2023-04-24T01:37:59;10.70;99.40
29501;DHT22;16450;50.288;10.966;2023-04-24T01:41:01;10.70;99.50
29501;DHT22;16450;50.288;10.966;2023-04-24T01:44:04;10.70;99.50
29501;DHT22;16450;50.288;10.966;2023-04-24T01:47:06;10.70;99.50
29501;DHT22;16450;50.288;10.966;2023-04-24T01:50:09;10.70;99.60
29501;DHT22;16450;50.288;10.966;2023-04-24T01:53:11;10.70;99.60
29501;DHT22;16450;50.288;10.966;2023-04-24T01:56:14;10.70;99.60
29501;DHT22;16450;50.288;10.966;2023-04-24T01:59:17;10.70;99.60
29501;DHT22;16450;50.288;10.966;2023-04-24T02:02:19;10.70;99.70
29501;DHT22;16450;50.288;10.966;2023-04-24T02:05:23;10.70;99.70
29501;DHT22;16450;50.288;10.966;2023-04-24T02:08:25;10.70;99.70
29501;DHT22;16450;50.288;10.966;2023-04-24T02:11:27;10.70;99.70
29501;DHT22;16450;50.288;10.966;2023-04-24T02:14:28;10.70;99.70
29501;DHT22;16450;50.288;10.966;2023-04-24T02:17:30;10.70;99.80
29501;DHT22;16450;50.288;10.966;2023-04-24T02:20:33;10.70;99.80
29501;DHT22;16450;50.288;10.966;2023-04-24T02:23:38;10.70;99.80
29501;DHT22;16450;50.288;10.966;2023-04-24T02:26:40;10.70;99.70
29501;DHT22;16450;50.288;10.966;2023-04-24T02:29:42;10.70;99.70
29501;DHT22;16450;50.288;10.966;2023-04-24T02:32:44;10.60;99.70
29501;DHT22;16450;50.288;10.966;2023-04-24T02:35:46;10.60;99.60
29501;DHT22;16450;50.288;10.966;2023-04-24T02:38:48;10.60;99.60
29501;DHT22;16450;50.288;10.966;2023-04-24T02:41:50;10.60;99.60
29501;DHT22;16450;50.288;10.966;2023-04-24T02:44:52;10.50;99.50
29501;DHT22;16450;50.288;10.966;2023-04-24T02:47:54;10.50;99.50
29501;DHT22;16450;50.288;10.966;2023-04-24T02:50:56;10.50;99.50
29501;DHT22;16450;50.288;10.966;2023-04-24T02:53:59;10.50;99.50
29501;DHT22;16450;50.288;10.966;2023-04-24T02:57:01;10.40;99.50
29501;DHT22;16450;50.288;10.966;2023-04-24T03:00:03;10.40;99.50
29501;DHT22;16450;50.288;10.966;2023-04-24T03:03:08;10.40;99.50
29501;DHT22;16450;50.288;10.966;2023-04-24T03:06:10;10.30;99.50
29501;DHT22;16450;50.288;10.966;2023-04-24T03:09:12;10.30;99.50
29501;DHT22;16450;50.288;10.966;2023-04-24T03:12:14;10.20;99.50
29501;DHT22;16450;50.288;10.966;2023-04-24T03:15:18;10.30;99.60
29501;DHT22;16450;50.288;10.966;2023-04-24T03:18:20;10.30;99.80
29501;DHT22;16450;50.288;10.966;2023-04-24T03:21:22;10.30;99.90
29501;DHT22;16450;50.288;10.966;2023-04-24T03:24:24;10.30;99.90
29501;DHT22;16450;50.288;10.966;2023-04-24T03:27:26;10.30;99.90
29501;DHT22;16450;50.288;10.966;2023-04-24T03:30:28;10.30;99.90
29501;DHT22;16450;50.288;10.966;2023-04-24T03:33:30;10.30;99.90
29501;DHT22;16450;50.288;10.966;2023-04-24T03:36:32;10.40;99.90
29501;DHT22;16450;50.288;10.966;2023-04-24T03:39:34;10.30;99.90
29501;DHT22;16450;50.288;10.966;2023-04-24T03:42:36;10.30;99.90
29501;DHT22;16450;50.288;10.966;2023-04-24T03:45:40;10.40;99.90
29501;DHT22;16450;50.288;10.966;2023-04-24T03:48:42;10.40;99.90
29501;DHT22;16450;50.288;10.966;2023-04-24T03:51:43;10.40;99.90
29501;DHT22;16450;50.288;10.966;2023-04-24T03:54:45;10.40;99.90
29501;DHT22;16450;50.288;10.966;2023-04-24T03:57:47;10.40;99.90
29501;DHT22;16450;50.288;10.966;2023-04-24T04:00:49;10.40;99.90
29501;DHT22;16450;50.288;10.966;2023-04-24T04:03:51;10.40;99.90
29501;DHT22;16450;50.288;10.966;2023-04-24T04:06:54;10.40;99.90
29501;DHT22;16450;50.288;10.966;2023-04-24T04:09:56;10.40;99.90
29501;DHT22;16450;50.288;10.966;2023-04-24T04:12:57;10.40;99.90
29501;DHT22;16450;50.288;10.966;2023-04-24T04:15:59;10.40;99.90
29501;DHT22;16450;50.288;10.966;2023-04-24T04:19:02;10.40;99.90
29501;DHT22;16450;50.288;10.966;2023-04-24T04:22:04;10.40;99.90
29501;DHT22;16450;50.288;10.966;2023-04-24T04:25:07;10.50;99.90
29501;DHT22;16450;50.288;10.966;2023-04-24T04:28:10;10.40;99.90
29501;DHT22;16450;50.288;10.966;2023-04-24T04:31:12;10.40;99.90
29501;DHT22;16450;50.288;10.966;2023-04-24T04:34:14;10.50;99.90
29501;DHT22;16450;50.288;10.966;2023-04-24T04:37:16;10.50;99.90
29501;DHT22;16450;50.288;10.966;2023-04-24T04:40:18;10.50;99.90
29501;DHT22;16450;50.288;10.966;2023-04-24T04:43:20;10.50;99.90
29501;DHT22;16450;50.288;10.966;2023-04-24T04:46:22;10.50;99.90
29501;DHT22;16450;50.288;10.966;2023-04-24T04:49:27;10.50;99.90
29501;DHT22;16450;50.288;10.966;2023-04-24T04:52:30;10.50;99.90
29501;DHT22;16450;50.288;10.966;2023-04-24T04:55:32;10.50;99.90
29501;DHT22;16450;50.288;10.966;2023-04-24T04:58:34;10.50;99.90
29501;DHT22;16450;50.288;10.966;2023-04-24T05:01:36;10.60;99.90
29501;DHT22;16450;50.288;10.966;2023-04-24T05:04:38;10.60;99.90
29501;DHT22;16450;50.288;10.966;2023-04-24T05:07:40;10.60;99.90
29501;DHT22;16450;50.288;10.966;2023-04-24T05:10:42;10.60;99.90
29501;DHT22;16450;50.288;10.966;2023-04-24T05:13:44;10.60;99.90
29501;DHT22;16450;50.288;10.966;2023-04-24T05:16:46;10.70;99.90
29501;DHT22;16450;50.288;10.966;2023-04-24T05:19:48;10.70;99.90
29501;DHT22;16450;50.288;10.966;2023-04-24T05:22:50;10.70;99.90
29501;DHT22;16450;50.288;10.966;2023-04-24T05:25:52;10.70;99.90
29501;DHT22;16450;50.288;10.966;2023-04-24T05:28:54;10.80;99.90
29501;DHT22;16450;50.288;10.966;2023-04-24T05:31:56;10.80;99.90
29501;DHT22;16450;50.288;10.966;2023-04-24T05:34:58;10.80;99.90
29501;DHT22;16450;50.288;10.966;2023-04-24T05:38:00;10.90;99.90
29501;DHT22;16450;50.288;10.966;2023-04-24T05:41:02;10.90;99.90
29501;DHT22;16450;50.288;10.966;2023-04-24T05:44:03;10.90;99.90
29501;DHT22;16450;50.288;10.966;2023-04-24T05:47:05;11.00;99.90
29501;DHT22;16450;50.288;10.966;2023-04-24T05:50:07;11.00;99.90
29501;DHT22;16450;50.288;10.966;2023-04-24T05:53:09;11.00;99.90
29501;DHT22;16450;50.288;10.966;2023-04-24T05:56:12;11.10;99.90
29501;DHT22;16450;50.288;10.966;2023-04-24T05:59:14;11.00;99.90
29501;DHT22;16450;50.288;10.966;2023-04-24T06:02:16;11.00;99.90
29501;DHT22;16450;50.288;10.966;2023-04-24T06:05:18;11.10;99.90
29501;DHT22;16450;50.288;10.966;2023-04-24T06:08:20;11.10;99.90
29501;DHT22;16450;50.288;10.966;2023-04-24T06:11:22;11.10;99.90
29501;DHT22;16450;50.288;10.966;2023-04-24T06:14:24;11.10;99.90
29501;DHT22;16450;50.288;10.966;2023-04-24T06:17:26;11.20;99.90
29501;DHT22;16450;50.288;10.966;2023-04-24T06:20:28;11.10;99.90
29501;DHT22;16450;50.288;10.966;2023-04-24T06:23:30;11.10;99.90
29501;DHT22;16450;50.288;10.966;2023-04-24T06:26:34;11.10;99.90
29501;DHT22;16450;50.288;10.966;2023-04-24T06:29:37;11.10;99.90
29501;DHT22;16450;50.288;10.966;2023-04-24T06:32:39;11.10;99.90
29501;DHT22;16450;50.288;10.966;2023-04-24T06:35:41;11.10;99.90
29501;DHT22;16450;50.288;10.966;2023-04-24T06:38:43;11.10;99.90
29501;DHT22;16450;50.288;10.966;2023-04-24T06:41:45;11.10;99.90
29501;DHT22;16450;50.288;10.966;2023-04-24T06:44:47;11.10;99.90
29501;DHT22;16450;50.288;10.966;2023-04-24T06:47:49;11.10;99.90
29501;DHT22;16450;50.288;10.966;2023-04-24T06:50:51;11.10;99.90
29501;DHT22;16450;50.288;10.966;2023-04-24T06:53:53;11.10;99.90
29501;DHT22;16450;50.288;10.966;2023-04-24T06:56:56;11.20;99.90
29501;DHT22;16450;50.288;10.966;2023-04-24T06:59:59;11.20;99.90
29501;DHT22;16450;50.288;10.966;2023-04-24T07:03:01;11.20;99.90
29501;DHT22;16450;50.288;10.966;2023-04-24T07:06:05;11.30;99.90
29501;DHT22;16450;50.288;10.966;2023-04-24T07:09:07;11.40;99.90
29501;DHT22;16450;50.288;10.966;2023-04-24T07:12:10;11.40;99.90
29501;DHT22;16450;50.288;10.966;2023-04-24T07:15:13;11.40;99.90
29501;DHT22;16450;50.288;10.966;2023-04-24T07:18:14;11.60;99.90
29501;DHT22;16450;50.288;10.966;2023-04-24T07:21:16;11.60;99.90
29501;DHT22;16450;50.288;10.966;2023-04-24T07:24:18;11.70;99.90
29501;DHT22;16450;50.288;10.966;2023-04-24T07:27:23;11.70;99.90
29501;DHT22;16450;50.288;10.966;2023-04-24T07:30:25;11.60;99.90
29501;DHT22;16450;50.288;10.966;2023-04-24T07:33:27;11.70;99.90
29501;DHT22;16450;50.288;10.966;2023-04-24T07:36:29;11.80;99.90
29501;DHT22;16450;50.288;10.966;2023-04-24T07:39:31;11.80;99.90
29501;DHT22;16450;50.288;10.966;2023-04-24T07:42:33;12.00;99.90
29501;DHT22;16450;50.288;10.966;2023-04-24T07:45:36;12.10;99.90
29501;DHT22;16450;50.288;10.966;2023-04-24T07:48:39;12.40;99.90
29501;DHT22;16450;50.288;10.966;2023-04-24T07:51:41;12.70;99.90
29501;DHT22;16450;50.288;10.966;2023-04-24T07:54:43;13.00;99.90
29501;DHT22;16450;50.288;10.966;2023-04-24T07:57:45;13.40;99.90
29501;DHT22;16450;50.288;10.966;2023-04-24T08:00:47;13.80;99.90
29501;DHT22;16450;50.288;10.966;2023-04-24T08:03:50;14.20;99.90
29501;DHT22;16450;50.288;10.966;2023-04-24T08:06:52;14.30;99.90
29501;DHT22;16450;50.288;10.966;2023-04-24T08:09:54;14.50;99.10
29501;DHT22;16450;50.288;10.966;2023-04-24T08:12:56;14.50;98.40
29501;DHT22;16450;50.288;10.966;2023-04-24T08:15:58;14.40;98.40
29501;DHT22;16450;50.288;10.966;2023-04-24T08:19:00;14.40;99.50
29501;DHT22;16450;50.288;10.966;2023-04-24T08:22:02;14.60;99.90
29501;DHT22;16450;50.288;10.966;2023-04-24T08:25:06;14.90;99.90
29501;DHT22;16450;50.288;10.966;2023-04-24T08:28:09;15.20;99.90
29501;DHT22;16450;50.288;10.966;2023-04-24T08:31:12;15.60;99.90
29501;DHT22;16450;50.288;10.966;2023-04-24T08:34:14;16.00;99.90
29501;DHT22;16450;50.288;10.966;2023-04-24T08:37:16;16.20;99.00
29501;DHT22;16450;50.288;10.966;2023-04-24T08:40:18;16.40;97.90
29501;DHT22;16450;50.288;10.966;2023-04-24T08:43:22;16.40;97.10
29501;DHT22;16450;50.288;10.966;2023-04-24T08:46:24;16.40;96.90
29501;DHT22;16450;50.288;10.966;2023-04-24T08:49:28;16.40;96.80
29501;DHT22;16450;50.288;10.966;2023-04-24T08:52:30;16.40;95.90
29501;DHT22;16450;50.288;10.966;2023-04-24T08:55:33;16.40;95.70
29501;DHT22;16450;50.288;10.966;2023-04-24T08:58:35;16.30;94.70
29501;DHT22;16450;50.288;10.966;2023-04-24T09:01:37;16.10;94.20
29501;DHT22;16450;50.288;10.966;2023-04-24T09:04:42;15.90;93.50
29501;DHT22;16450;50.288;10.966;2023-04-24T09:07:46;15.60;92.80
29501;DHT22;16450;50.288;10.966;2023-04-24T09:10:49;15.40;93.10
29501;DHT22;16450;50.288;10.966;2023-04-24T09:13:52;15.10;93.30
29501;DHT22;16450;50.288;10.966;2023-04-24T09:16:54;14.80;93.30
29501;DHT22;16450;50.288;10.966;2023-04-24T09:19:56;14.60;93.30
29501;DHT22;16450;50.288;10.966;2023-04-24T09:22:58;14.50;93.40
29501;DHT22;16450;50.288;10.966;2023-04-24T09:26:02;14.40;94.70
29501;DHT22;16450;50.288;10.966;2023-04-24T09:29:06;14.50;95.70
29501;DHT22;16450;50.288;10.966;2023-04-24T09:32:22;14.60;97.30
29501;DHT22;16450;50.288;10.966;2023-04-24T09:35:24;14.90;94.00
29501;DHT22;16450;50.288;10.966;2023-04-24T09:38:33;15.00;95.40
29501;DHT22;16450;50.288;10.966;2023-04-24T09:41:35;15.10;93.10
29501;DHT22;16450;50.288;10.966;2023-04-24T09:44:46;15.10;93.60
29501;DHT22;16450;50.288;10.966;2023-04-24T09:48:02;15.10;93.20
29501;DHT22;16450;50.288;10.966;2023-04-24T09:51:05;15.00;93.90
29501;DHT22;16450;50.288;10.966;2023-04-24T09:54:20;14.90;93.30
29501;DHT22;16450;50.288;10.966;2023-04-24T09:57:23;14.90;92.00
29501;DHT22;16450;50.288;10.966;2023-04-24T10:00:27;14.80;92.80
29501;DHT22;16450;50.288;10.966;2023-04-24T10:03:31;14.70;92.10
29501;DHT22;16450;50.288;10.966;2023-04-24T10:06:34;14.60;92.20
29501;DHT22;16450;50.288;10.966;2023-04-24T10:09:36;14.40;91.90
29501;DHT22;16450;50.288;10.966;2023-04-24T10:12:39;14.30;91.80
29501;DHT22;16450;50.288;10.966;2023-04-24T10:15:41;14.10;91.40
29501;DHT22;16450;50.288;10.966;2023-04-24T10:18:44;14.00;91.50
29501;DHT22;16450;50.288;10.966;2023-04-24T10:21:47;13.90;91.90
29501;DHT22;16450;50.288;10.966;2023-04-24T10:24:50;13.80;92.10
29501;DHT22;16450;50.288;10.966;2023-04-24T10:27:53;13.80;92.50
29501;DHT22;16450;50.288;10.966;2023-04-24T10:30:58;13.90;92.80
29501;DHT22;16450;50.288;10.966;2023-04-24T10:34:01;14.00;93.10
29501;DHT22;16450;50.288;10.966;2023-04-24T10:37:04;14.10;92.50
29501;DHT22;16450;50.288;10.966;2023-04-24T10:40:07;14.20;92.20
29501;DHT22;16450;50.288;10.966;2023-04-24T10:43:10;14.20;90.90
29501;DHT22;16450;50.288;10.966;2023-04-24T10:46:19;14.20;91.50
29501;DHT22;16450;50.288;10.966;2023-04-24T10:49:29;14.20;90.70
29501;DHT22;16450;50.288;10.966;2023-04-24T10:52:44;14.20;90.60
29501;DHT22;16450;50.288;10.966;2023-04-24T10:55:49;14.30;90.50
29501;DHT22;16450;50.288;10.966;2023-04-24T10:58:53;14.40;91.70
29501;DHT22;16450;50.288;10.966;2023-04-24T11:01:55;14.40;91.10
29501;DHT22;16450;50.288;10.966;2023-04-24T11:04:57;14.30;91.20
29501;DHT22;16450;50.288;10.966;2023-04-24T11:08:13;14.30;91.20
29501;DHT22;16450;50.288;10.966;2023-04-24T11:11:17;14.10;88.70
29501;DHT22;16450;50.288;10.966;2023-04-24T11:14:19;14.10;90.80
29501;DHT22;16450;50.288;10.966;2023-04-24T11:17:38;14.00;91.20
29501;DHT22;16450;50.288;10.966;2023-04-24T11:20:45;13.90;90.20
29501;DHT22;16450;50.288;10.966;2023-04-24T11:23:48;13.90;91.10
29501;DHT22;16450;50.288;10.966;2023-04-24T11:26:53;13.80;91.00
29501;DHT22;16450;50.288;10.966;2023-04-24T11:33:04;13.70;91.60
29501;DHT22;16450;50.288;10.966;2023-04-24T11:36:07;13.70;90.90
29501;DHT22;16450;50.288;10.966;2023-04-24T11:39:09;13.80;92.00
29501;DHT22;16450;50.288;10.966;2023-04-24T11:42:15;13.90;91.90
29501;DHT22;16450;50.288;10.966;2023-04-24T11:45:21;13.90;91.10
29501;DHT22;16450;50.288;10.966;2023-04-24T11:48:24;14.00;91.60
29501;DHT22;16450;50.288;10.966;2023-04-24T11:51:27;14.10;92.10
29501;DHT22;16450;50.288;10.966;2023-04-24T11:54:37;14.20;91.20
29501;DHT22;16450;50.288;10.966;2023-04-24T11:57:39;14.20;91.20
29501;DHT22;16450;50.288;10.966;2023-04-24T12:00:45;14.20;91.00
29501;DHT22;16450;50.288;10.966;2023-04-24T12:03:49;14.20;91.00
29501;DHT22;16450;50.288;10.966;2023-04-24T12:06:59;14.10;90.20
29501;DHT22;16450;50.288;10.966;2023-04-24T12:10:02;14.00;88.70
29501;DHT22;16450;50.288;10.966;2023-04-24T12:13:04;13.90;90.60
29501;DHT22;16450;50.288;10.966;2023-04-24T12:16:07;13.80;90.30
29501;DHT22;16450;50.288;10.966;2023-04-24T12:19:09;13.70;90.30
29501;DHT22;16450;50.288;10.966;2023-04-24T12:22:11;13.70;90.40
29501;DHT22;16450;50.288;10.966;2023-04-24T12:25:17;13.70;90.50
29501;DHT22;16450;50.288;10.966;2023-04-24T12:28:20;13.50;90.20
29501;DHT22;16450;50.288;10.966;2023-04-24T12:31:22;13.50;90.70
29501;DHT22;16450;50.288;10.966;2023-04-24T12:34:25;13.40;91.50
29501;DHT22;16450;50.288;10.966;2023-04-24T12:37:33;13.40;91.80
29501;DHT22;16450;50.288;10.966;2023-04-24T12:40:35;13.40;91.30
29501;DHT22;16450;50.288;10.966;2023-04-24T12:43:37;13.50;92.40
29501;DHT22;16450;50.288;10.966;2023-04-24T12:46:39;13.60;92.60
29501;DHT22;16450;50.288;10.966;2023-04-24T12:49:41;13.70;93.20
29501;DHT22;16450;50.288;10.966;2023-04-24T12:52:43;13.90;94.00
29501;DHT22;16450;50.288;10.966;2023-04-24T12:55:45;14.10;94.40
29501;DHT22;16450;50.288;10.966;2023-04-24T12:58:53;14.40;93.50
29501;DHT22;16450;50.288;10.966;2023-04-24T13:01:55;14.70;93.50
29501;DHT22;16450;50.288;10.966;2023-04-24T13:04:58;14.90;93.70
29501;DHT22;16450;50.288;10.966;2023-04-24T13:08:00;15.00;92.80
29501;DHT22;16450;50.288;10.966;2023-04-24T13:11:02;15.20;91.80
29501;DHT22;16450;50.288;10.966;2023-04-24T13:14:04;15.20;91.50
29501;DHT22;16450;50.288;10.966;2023-04-24T13:17:06;15.10;90.90
29501;DHT22;16450;50.288;10.966;2023-04-24T13:20:12;15.00;90.60
29501;DHT22;16450;50.288;10.966;2023-04-24T13:23:14;14.90;90.30
29501;DHT22;16450;50.288;10.966;2023-04-24T13:26:17;14.70;90.10
29501;DHT22;16450;50.288;10.966;2023-04-24T13:29:19;14.50;90.00
29501;DHT22;16450;50.288;10.966;2023-04-24T13:32:21;14.30;90.20
29501;DHT22;16450;50.288;10.966;2023-04-24T13:35:23;14.10;90.40
29501;DHT22;16450;50.288;10.966;2023-04-24T13:38:25;13.90;90.40
29501;DHT22;16450;50.288;10.966;2023-04-24T13:41:27;13.90;90.60
29501;DHT22;16450;50.288;10.966;2023-04-24T13:44:29;13.70;91.30
29501;DHT22;16450;50.288;10.966;2023-04-24T13:47:31;13.70;91.80
29501;DHT22;16450;50.288;10.966;2023-04-24T13:50:33;13.80;91.90
29501;DHT22;16450;50.288;10.966;2023-04-24T13:53:35;13.90;91.80
29501;DHT22;16450;50.288;10.966;2023-04-24T13:56:40;14.00;91.70
29501;DHT22;16450;50.288;10.966;2023-04-24T13:59:42;14.00;91.20
29501;DHT22;16450;50.288;10.966;2023-04-24T14:02:44;14.00;91.10
29501;DHT22;16450;50.288;10.966;2023-04-24T14:05:46;13.90;91.20
29501;DHT22;16450;50.288;10.966;2023-04-24T14:08:49;13.90;91.00
29501;DHT22;16450;50.288;10.966;2023-04-24T14:11:52;13.90;90.80
29501;DHT22;16450;50.288;10.966;2023-04-24T14:14:54;13.80;90.70
29501;DHT22;16450;50.288;10.966;2023-04-24T14:17:56;13.70;90.30
29501;DHT22;16450;50.288;10.966;2023-04-24T14:20:57;13.70;90.50
29501;DHT22;16450;50.288;10.966;2023-04-24T14:24:00;13.60;90.60
29501;DHT22;16450;50.288;10.966;2023-04-24T14:27:02;13.40;90.70
29501;DHT22;16450;50.288;10.966;2023-04-24T14:30:05;13.30;90.60
29501;DHT22;16450;50.288;10.966;2023-04-24T14:33:07;13.20;90.50
29501;DHT22;16450;50.288;10.966;2023-04-24T14:36:09;13.10;90.60
29501;DHT22;16450;50.288;10.966;2023-04-24T14:39:11;13.00;90.90
29501;DHT22;16450;50.288;10.966;2023-04-24T14:42:14;13.00;91.00
29501;DHT22;16450;50.288;10.966;2023-04-24T14:45:16;12.90;91.00
29501;DHT22;16450;50.288;10.966;2023-04-24T14:48:17;12.90;91.40
29501;DHT22;16450;50.288;10.966;2023-04-24T14:51:20;12.80;91.50
29501;DHT22;16450;50.288;10.966;2023-04-24T14:54:22;12.80;91.60
29501;DHT22;16450;50.288;10.966;2023-04-24T14:57:25;12.80;91.70
29501;DHT22;16450;50.288;10.966;2023-04-24T15:00:26;12.70;91.70
29501;DHT22;16450;50.288;10.966;2023-04-24T15:03:28;12.70;91.80
29501;DHT22;16450;50.288;10.966;2023-04-24T15:06:31;12.60;91.80
29501;DHT22;16450;50.288;10.966;2023-04-24T15:09:33;12.60;91.70
29501;DHT22;16450;50.288;10.966;2023-04-24T15:12:36;12.50;91.70
29501;DHT22;16450;50.288;10.966;2023-04-24T15:15:37;12.30;91.70
29501;DHT22;16450;50.288;10.966;2023-04-24T15:18:39;12.00;91.80
29501;DHT22;16450;50.288;10.966;2023-04-24T15:21:41;11.90;92.10
29501;DHT22;16450;50.288;10.966;2023-04-24T15:24:44;11.70;92.60
29501;DHT22;16450;50.288;10.966;2023-04-24T15:27:47;11.60;92.90
29501;DHT22;16450;50.288;10.966;2023-04-24T15:30:49;11.40;93.10
29501;DHT22;16450;50.288;10.966;2023-04-24T15:33:51;11.40;93.30
29501;DHT22;16450;50.288;10.966;2023-04-24T15:36:53;11.40;93.70
29501;DHT22;16450;50.288;10.966;2023-04-24T15:39:55;11.20;93.80
29501;DHT22;16450;50.288;10.966;2023-04-24T15:42:57;11.10;93.90
29501;DHT22;16450;50.288;10.966;2023-04-24T15:46:00;11.10;94.20
29501;DHT22;16450;50.288;10.966;2023-04-24T15:49:02;11.10;94.50
29501;DHT22;16450;50.288;10.966;2023-04-24T15:52:03;11.10;94.60
29501;DHT22;16450;50.288;10.966;2023-04-24T15:55:06;11.10;94.50
29501;DHT22;16450;50.288;10.966;2023-04-24T15:58:08;11.00;94.20
29501;DHT22;16450;50.288;10.966;2023-04-24T16:01:10;11.00;94.10
29501;DHT22;16450;50.288;10.966;2023-04-24T16:04:12;10.90;94.00
29501;DHT22;16450;50.288;10.966;2023-04-24T16:07:15;10.80;94.20
29501;DHT22;16450;50.288;10.966;2023-04-24T16:10:19;10.70;94.30
29501;DHT22;16450;50.288;10.966;2023-04-24T16:13:21;10.60;94.30
29501;DHT22;16450;50.288;10.966;2023-04-24T16:16:23;10.60;94.40
29501;DHT22;16450;50.288;10.966;2023-04-24T16:19:25;10.50;94.50
29501;DHT22;16450;50.288;10.966;2023-04-24T16:22:29;10.40;94.40
29501;DHT22;16450;50.288;10.966;2023-04-24T16:25:31;10.40;94.50
29501;DHT22;16450;50.288;10.966;2023-04-24T16:28:33;10.50;94.70
29501;DHT22;16450;50.288;10.966;2023-04-24T16:31:35;10.40;94.90
29501;DHT22;16450;50.288;10.966;2023-04-24T16:34:37;10.30;95.00
29501;DHT22;16450;50.288;10.966;2023-04-24T16:37:39;10.40;95.00
29501;DHT22;16450;50.288;10.966;2023-04-24T16:40:41;10.40;95.40
29501;DHT22;16450;50.288;10.966;2023-04-24T16:43:43;10.50;95.80
29501;DHT22;16450;50.288;10.966;2023-04-24T16:46:45;10.60;96.00
29501;DHT22;16450;50.288;10.966;2023-04-24T16:49:48;10.70;96.00
29501;DHT22;16450;50.288;10.966;2023-04-24T16:52:50;10.80;95.60
29501;DHT22;16450;50.288;10.966;2023-04-24T16:55:52;10.80;95.30
29501;DHT22;16450;50.288;10.966;2023-04-24T16:58:54;10.80;95.20
29501;DHT22;16450;50.288;10.966;2023-04-24T17:01:56;10.80;95.20
29501;DHT22;16450;50.288;10.966;2023-04-24T17:04:59;10.70;95.20
29501;DHT22;16450;50.288;10.966;2023-04-24T17:08:01;10.80;95.30
29501;DHT22;16450;50.288;10.966;2023-04-24T17:11:03;10.70;95.30
29501;DHT22;16450;50.288;10.966;2023-04-24T17:14:05;10.70;95.50
29501;DHT22;16450;50.288;10.966;2023-04-24T17:17:07;10.70;95.50
29501;DHT22;16450;50.288;10.966;2023-04-24T17:20:09;10.80;95.50
29501;DHT22;16450;50.288;10.966;2023-04-24T17:23:23;10.80;95.60
29501;DHT22;16450;50.288;10.966;2023-04-24T17:26:25;10.70;95.50
29501;DHT22;16450;50.288;10.966;2023-04-24T17:29:28;10.80;95.50
29501;DHT22;16450;50.288;10.966;2023-04-24T17:32:30;10.80;95.40
29501;DHT22;16450;50.288;10.966;2023-04-24T17:35:31;10.70;95.30
29501;DHT22;16450;50.288;10.966;2023-04-24T17:38:34;10.70;95.20
29501;DHT22;16450;50.288;10.966;2023-04-24T17:41:36;10.70;95.30
29501;DHT22;16450;50.288;10.966;2023-04-24T17:44:38;10.70;95.30
29501;DHT22;16450;50.288;10.966;2023-04-24T17:47:40;10.60;95.50
29501;DHT22;16450;50.288;10.966;2023-04-24T17:50:43;10.60;95.60
29501;DHT22;16450;50.288;10.966;2023-04-24T17:53:45;10.60;95.60
29501;DHT22;16450;50.288;10.966;2023-04-24T17:56:49;10.60;95.70
29501;DHT22;16450;50.288;10.966;2023-04-24T17:59:53;10.50;95.70
29501;DHT22;16450;50.288;10.966;2023-04-24T18:02:55;10.50;95.80
29501;DHT22;16450;50.288;10.966;2023-04-24T18:06:05;10.50;95.70
29501;DHT22;16450;50.288;10.966;2023-04-24T18:09:06;10.50;95.60
29501;DHT22;16450;50.288;10.966;2023-04-24T18:12:09;10.50;95.50
29501;DHT22;16450;50.288;10.966;2023-04-24T18:15:11;10.40;95.60
29501;DHT22;16450;50.288;10.966;2023-04-24T18:18:15;10.50;95.60
29501;DHT22;16450;50.288;10.966;2023-04-24T18:21:18;10.40;95.50
29501;DHT22;16450;50.288;10.966;2023-04-24T18:24:21;10.40;95.50
29501;DHT22;16450;50.288;10.966;2023-04-24T18:27:23;10.40;95.60
29501;DHT22;16450;50.288;10.966;2023-04-24T18:30:34;10.30;95.70
29501;DHT22;16450;50.288;10.966;2023-04-24T18:33:36;10.30;95.70
29501;DHT22;16450;50.288;10.966;2023-04-24T18:36:38;10.20;95.70
29501;DHT22;16450;50.288;10.966;2023-04-24T18:39:40;10.20;95.70
29501;DHT22;16450;50.288;10.966;2023-04-24T18:42:42;10.20;95.70
29501;DHT22;16450;50.288;10.966;2023-04-24T18:45:45;10.10;95.70
29501;DHT22;16450;50.288;10.966;2023-04-24T18:48:47;10.10;95.70
29501;DHT22;16450;50.288;10.966;2023-04-24T18:51:49;10.00;95.80
29501;DHT22;16450;50.288;10.966;2023-04-24T18:54:55;10.00;95.90
29501;DHT22;16450;50.288;10.966;2023-04-24T18:57:57;9.90;95.90